sensor_id;sensor_type;location;lat;lon;timestamp;pressure;altitude;pressure_sealevel;temperature;humidity
7478;BME280;3780;42.424;25.636;2023-03-19T05:43:27;99737.06;;;11.82;nan
7478;BME280;3780;42.424;25.636;2023-03-19T05:45:53;99742.72;;;12.24;nan
7478;BME280;3780;42.424;25.636;2023-03-19T05:48:18;99728.47;;;11.85;nan
7478;BME280;3780;42.424;25.636;2023-03-19T05:50:44;99733.41;;;12.15;nan
7478;BME280;3780;42.424;25.636;2023-03-19T05:53:09;99730.59;;;12.58;nan
7478;BME280;3780;42.424;25.636;2023-03-19T05:55:35;99727.47;;;13.09;nan
7478;BME280;3780;42.424;25.636;2023-03-19T05:58:01;99733.47;;;13.16;nan
7478;BME280;3780;42.424;25.636;2023-03-19T06:00:26;99734.34;;;13.69;nan
7478;BME280;3780;42.424;25.636;2023-03-19T06:03:01;99734.50;;;14.15;nan
7478;BME280;3780;42.424;25.636;2023-03-19T06:05:27;99723.84;;;13.93;nan
7478;BME280;3780;42.424;25.636;2023-03-19T06:07:52;99723.66;;;14.15;nan
7478;BME280;3780;42.424;25.636;2023-03-19T06:10:18;99725.25;;;14.10;nan
7478;BME280;3780;42.424;25.636;2023-03-19T06:12:43;99730.16;;;14.14;nan
7478;BME280;3780;42.424;25.636;2023-03-19T06:15:09;99716.56;;;12.99;nan
7478;BME280;3780;42.424;25.636;2023-03-19T06:17:35;99722.03;;;13.09;nan
7478;BME280;3780;42.424;25.636;2023-03-19T06:20:01;99720.72;;;13.54;nan
7478;BME280;3780;42.424;25.636;2023-03-19T06:22:28;99705.78;;;13.51;nan
7478;BME280;3780;42.424;25.636;2023-03-19T06:24:53;99720.19;;;13.57;nan
7478;BME280;3780;42.424;25.636;2023-03-19T06:27:19;99716.41;;;13.63;nan
7478;BME280;3780;42.424;25.636;2023-03-19T06:29:45;99709.34;;;13.57;nan
7478;BME280;3780;42.424;25.636;2023-03-19T06:32:11;99714.41;;;14.05;nan
7478;BME280;3780;42.424;25.636;2023-03-19T06:34:36;99720.16;;;14.29;nan
7478;BME280;3780;42.424;25.636;2023-03-19T06:37:02;99741.88;;;14.34;nan
7478;BME280;3780;42.424;25.636;2023-03-19T06:39:28;99722.56;;;14.21;nan
7478;BME280;3780;42.424;25.636;2023-03-19T06:41:53;99730.69;;;14.05;nan
7478;BME280;3780;42.424;25.636;2023-03-19T06:44:19;99725.00;;;14.07;nan
7478;BME280;3780;42.424;25.636;2023-03-19T06:46:45;99748.41;;;14.44;nan
7478;BME280;3780;42.424;25.636;2023-03-19T06:49:10;99690.81;;;14.21;nan
7478;BME280;3780;42.424;25.636;2023-03-19T06:51:36;99746.56;;;14.64;nan
7478;BME280;3780;42.424;25.636;2023-03-19T06:54:02;99748.19;;;15.01;nan
7478;BME280;3780;42.424;25.636;2023-03-19T06:56:28;99736.78;;;14.99;nan
7478;BME280;3780;42.424;25.636;2023-03-19T06:58:53;99719.94;;;15.02;nan
7478;BME280;3780;42.424;25.636;2023-03-19T07:01:19;99746.97;;;15.84;nan
7478;BME280;3780;42.424;25.636;2023-03-19T07:03:45;99753.25;;;15.69;nan
7478;BME280;3780;42.424;25.636;2023-03-19T07:06:11;99754.06;;;15.59;nan
7478;BME280;3780;42.424;25.636;2023-03-19T07:08:39;99759.72;;;15.83;nan
7478;BME280;3780;42.424;25.636;2023-03-19T07:11:10;99745.56;;;16.85;nan
7478;BME280;3780;42.424;25.636;2023-03-19T07:13:36;99744.19;;;17.16;nan
7478;BME280;3780;42.424;25.636;2023-03-19T07:16:02;99754.00;;;17.94;nan
7478;BME280;3780;42.424;25.636;2023-03-19T07:18:28;99762.44;;;17.69;nan
7478;BME280;3780;42.424;25.636;2023-03-19T07:20:53;99744.78;;;18.09;nan
7478;BME280;3780;42.424;25.636;2023-03-19T07:23:19;99750.78;;;18.49;nan
7478;BME280;3780;42.424;25.636;2023-03-19T07:25:45;99756.31;;;18.44;nan
7478;BME280;3780;42.424;25.636;2023-03-19T07:28:12;99735.41;;;17.72;nan
7478;BME280;3780;42.424;25.636;2023-03-19T07:30:37;99750.63;;;17.55;nan
7478;BME280;3780;42.424;25.636;2023-03-19T07:33:04;99728.50;;;18.04;nan
7478;BME280;3780;42.424;25.636;2023-03-19T07:35:31;99749.22;;;18.43;nan
7478;BME280;3780;42.424;25.636;2023-03-19T07:37:56;99716.50;;;18.94;nan
7478;BME280;3780;42.424;25.636;2023-03-19T07:40:23;99741.34;;;20.49;nan
7478;BME280;3780;42.424;25.636;2023-03-19T07:42:49;99743.91;;;20.31;nan
7478;BME280;3780;42.424;25.636;2023-03-19T07:45:15;99741.25;;;20.40;nan
7478;BME280;3780;42.424;25.636;2023-03-19T07:47:41;99735.66;;;19.68;nan
7478;BME280;3780;42.424;25.636;2023-03-19T07:50:07;99734.75;;;20.72;nan
7478;BME280;3780;42.424;25.636;2023-03-19T07:52:33;99736.38;;;20.95;nan
7478;BME280;3780;42.424;25.636;2023-03-19T07:55:00;99733.56;;;21.71;nan
7478;BME280;3780;42.424;25.636;2023-03-19T07:57:26;99728.13;;;21.18;nan
7478;BME280;3780;42.424;25.636;2023-03-19T07:59:51;99729.63;;;21.02;nan
7478;BME280;3780;42.424;25.636;2023-03-19T08:02:17;99731.44;;;21.29;nan
7478;BME280;3780;42.424;25.636;2023-03-19T08:04:42;99712.34;;;21.55;nan
7478;BME280;3780;42.424;25.636;2023-03-19T08:07:08;99735.88;;;22.04;nan
7478;BME280;3780;42.424;25.636;2023-03-19T08:09:37;99734.28;;;22.03;nan
7478;BME280;3780;42.424;25.636;2023-03-19T08:12:07;99724.31;;;22.24;nan
7478;BME280;3780;42.424;25.636;2023-03-19T08:14:33;99726.34;;;20.91;nan
7478;BME280;3780;42.424;25.636;2023-03-19T08:16:59;99700.03;;;20.90;nan
7478;BME280;3780;42.424;25.636;2023-03-19T08:19:25;99730.06;;;21.48;nan
7478;BME280;3780;42.424;25.636;2023-03-19T08:21:50;99733.09;;;22.96;nan
7478;BME280;3780;42.424;25.636;2023-03-19T08:24:16;99728.00;;;23.70;nan
7478;BME280;3780;42.424;25.636;2023-03-19T08:26:42;99705.66;;;23.63;nan
7478;BME280;3780;42.424;25.636;2023-03-19T08:29:08;99723.53;;;24.79;nan
7478;BME280;3780;42.424;25.636;2023-03-19T08:31:33;99731.09;;;25.03;nan
7478;BME280;3780;42.424;25.636;2023-03-19T08:33:59;99735.25;;;24.55;nan
7478;BME280;3780;42.424;25.636;2023-03-19T08:36:27;99706.63;;;24.47;nan
7478;BME280;3780;42.424;25.636;2023-03-19T08:38:53;99722.28;;;25.09;nan
7478;BME280;3780;42.424;25.636;2023-03-19T08:41:19;99723.78;;;25.07;nan
7478;BME280;3780;42.424;25.636;2023-03-19T08:43:45;99718.78;;;25.58;nan
7478;BME280;3780;42.424;25.636;2023-03-19T08:46:10;99707.09;;;24.82;nan
7478;BME280;3780;42.424;25.636;2023-03-19T08:48:36;99711.03;;;24.60;nan
7478;BME280;3780;42.424;25.636;2023-03-19T08:51:02;99710.44;;;23.45;nan
7478;BME280;3780;42.424;25.636;2023-03-19T08:53:29;99707.09;;;23.99;nan
7478;BME280;3780;42.424;25.636;2023-03-19T08:55:57;99706.97;;;23.95;nan
7478;BME280;3780;42.424;25.636;2023-03-19T08:58:23;99689.47;;;24.42;nan
7478;BME280;3780;42.424;25.636;2023-03-19T09:00:49;99698.03;;;24.19;nan
7478;BME280;3780;42.424;25.636;2023-03-19T09:03:15;99702.06;;;23.24;nan
7478;BME280;3780;42.424;25.636;2023-03-19T09:05:41;99693.13;;;22.12;nan
7478;BME280;3780;42.424;25.636;2023-03-19T09:08:07;99699.28;;;22.26;nan
7478;BME280;3780;42.424;25.636;2023-03-19T09:10:33;99691.25;;;23.96;nan
7478;BME280;3780;42.424;25.636;2023-03-19T09:12:59;99677.78;;;23.35;nan
7478;BME280;3780;42.424;25.636;2023-03-19T09:15:25;99681.69;;;23.93;nan
7478;BME280;3780;42.424;25.636;2023-03-19T09:17:51;99691.91;;;23.55;nan
7478;BME280;3780;42.424;25.636;2023-03-19T09:20:17;99696.66;;;22.90;nan
7478;BME280;3780;42.424;25.636;2023-03-19T09:22:42;99699.75;;;22.80;nan
7478;BME280;3780;42.424;25.636;2023-03-19T09:25:08;99678.69;;;24.28;nan
7478;BME280;3780;42.424;25.636;2023-03-19T09:27:34;99683.06;;;24.08;nan
7478;BME280;3780;42.424;25.636;2023-03-19T09:30:00;99689.38;;;23.41;nan
7478;BME280;3780;42.424;25.636;2023-03-19T09:32:25;99680.03;;;23.33;nan
7478;BME280;3780;42.424;25.636;2023-03-19T09:34:51;99668.06;;;22.65;nan
7478;BME280;3780;42.424;25.636;2023-03-19T09:37:16;99677.88;;;22.83;nan
7478;BME280;3780;42.424;25.636;2023-03-19T09:39:42;99673.75;;;22.17;nan
7478;BME280;3780;42.424;25.636;2023-03-19T09:45:00;99662.72;;;25.45;nan
7478;BME280;3780;42.424;25.636;2023-03-19T09:47:31;99645.44;;;25.11;nan
7478;BME280;3780;42.424;25.636;2023-03-19T09:50:09;99654.56;;;24.79;nan
7478;BME280;3780;42.424;25.636;2023-03-19T09:57:57;99632.09;;;26.39;nan
7478;BME280;3780;42.424;25.636;2023-03-19T10:00:31;99647.59;;;26.72;nan
7478;BME280;3780;42.424;25.636;2023-03-19T10:08:53;99623.22;;;25.93;nan
7478;BME280;3780;42.424;25.636;2023-03-19T10:16:38;99616.34;;;26.71;nan
7478;BME280;3780;42.424;25.636;2023-03-19T10:19:08;99575.50;;;26.36;nan
7478;BME280;3780;42.424;25.636;2023-03-19T10:21:48;99566.84;;;26.98;nan
7478;BME280;3780;42.424;25.636;2023-03-19T10:24:26;99606.22;;;25.79;nan
7478;BME280;3780;42.424;25.636;2023-03-19T10:27:04;99592.72;;;25.90;nan
7478;BME280;3780;42.424;25.636;2023-03-19T10:29:34;99605.78;;;27.20;nan
7478;BME280;3780;42.424;25.636;2023-03-19T10:32:15;99605.34;;;27.18;nan
7478;BME280;3780;42.424;25.636;2023-03-19T10:34:48;99592.81;;;28.11;nan
7478;BME280;3780;42.424;25.636;2023-03-19T10:37:27;99583.91;;;29.05;nan
7478;BME280;3780;42.424;25.636;2023-03-19T10:39:58;99578.41;;;29.35;nan
7478;BME280;3780;42.424;25.636;2023-03-19T10:45:30;99580.06;;;27.20;nan
7478;BME280;3780;42.424;25.636;2023-03-19T10:47:57;99565.00;;;28.69;nan
7478;BME280;3780;42.424;25.636;2023-03-19T10:50:51;99567.22;;;28.59;nan
7478;BME280;3780;42.424;25.636;2023-03-19T10:53:23;99564.97;;;29.37;nan
7478;BME280;3780;42.424;25.636;2023-03-19T10:56:06;99559.47;;;28.69;nan
7478;BME280;3780;42.424;25.636;2023-03-19T10:58:39;99551.25;;;28.14;nan
7478;BME280;3780;42.424;25.636;2023-03-19T11:01:08;99541.44;;;28.59;nan
7478;BME280;3780;42.424;25.636;2023-03-19T11:03:51;99542.81;;;29.44;nan
7478;BME280;3780;42.424;25.636;2023-03-19T11:06:40;99538.94;;;29.23;nan
7478;BME280;3780;42.424;25.636;2023-03-19T11:11:44;99535.13;;;28.39;nan
7478;BME280;3780;42.424;25.636;2023-03-19T11:19:19;99496.91;;;27.16;nan
7478;BME280;3780;42.424;25.636;2023-03-19T11:21:58;99498.66;;;27.25;nan
7478;BME280;3780;42.424;25.636;2023-03-19T11:24:25;99512.97;;;27.27;nan
7478;BME280;3780;42.424;25.636;2023-03-19T11:26:54;99511.22;;;27.92;nan
7478;BME280;3780;42.424;25.636;2023-03-19T11:29:20;99513.13;;;27.88;nan
7478;BME280;3780;42.424;25.636;2023-03-19T11:31:52;99509.97;;;27.70;nan
7478;BME280;3780;42.424;25.636;2023-03-19T11:39:47;99503.34;;;27.40;nan
7478;BME280;3780;42.424;25.636;2023-03-19T11:50:48;99478.34;;;27.56;nan
7478;BME280;3780;42.424;25.636;2023-03-19T12:09:08;99465.66;;;29.34;nan
7478;BME280;3780;42.424;25.636;2023-03-19T12:11:58;99466.16;;;29.70;nan
7478;BME280;3780;42.424;25.636;2023-03-19T12:26:08;99447.28;;;28.96;nan
7478;BME280;3780;42.424;25.636;2023-03-19T12:36:41;99466.09;;;29.96;nan
7478;BME280;3780;42.424;25.636;2023-03-19T12:39:16;99460.44;;;30.67;nan
7478;BME280;3780;42.424;25.636;2023-03-19T12:41:45;99452.84;;;31.19;nan
7478;BME280;3780;42.424;25.636;2023-03-19T12:44:23;99464.19;;;29.70;nan
7478;BME280;3780;42.424;25.636;2023-03-19T12:47:04;99451.03;;;29.37;nan
7478;BME280;3780;42.424;25.636;2023-03-19T12:50:10;99447.53;;;28.38;nan
7478;BME280;3780;42.424;25.636;2023-03-19T12:52:39;99446.63;;;29.63;nan
7478;BME280;3780;42.424;25.636;2023-03-19T13:00:51;99441.91;;;31.65;nan
7478;BME280;3780;42.424;25.636;2023-03-19T13:06:25;99428.53;;;30.61;nan
7478;BME280;3780;42.424;25.636;2023-03-19T13:09:12;99437.28;;;31.98;nan
7478;BME280;3780;42.424;25.636;2023-03-19T13:12:11;99433.03;;;31.31;nan
7478;BME280;3780;42.424;25.636;2023-03-19T13:15:03;99443.66;;;30.60;nan
7478;BME280;3780;42.424;25.636;2023-03-19T13:23:23;99440.56;;;30.69;nan
7478;BME280;3780;42.424;25.636;2023-03-19T13:25:51;99425.56;;;31.60;nan
7478;BME280;3780;42.424;25.636;2023-03-19T13:31:06;99407.00;;;28.33;nan
7478;BME280;3780;42.424;25.636;2023-03-19T13:33:34;99418.03;;;26.59;nan
7478;BME280;3780;42.424;25.636;2023-03-19T13:36:11;99409.22;;;25.94;nan
7478;BME280;3780;42.424;25.636;2023-03-19T13:38:47;99404.22;;;25.56;nan
7478;BME280;3780;42.424;25.636;2023-03-19T13:46:48;99409.25;;;28.05;nan
7478;BME280;3780;42.424;25.636;2023-03-19T13:52:01;99399.19;;;29.18;nan
7478;BME280;3780;42.424;25.636;2023-03-19T13:54:42;99404.81;;;28.00;nan
7478;BME280;3780;42.424;25.636;2023-03-19T13:59:42;99400.72;;;28.37;nan
7478;BME280;3780;42.424;25.636;2023-03-19T14:07:53;99395.84;;;28.07;nan
7478;BME280;3780;42.424;25.636;2023-03-19T14:10:30;99405.06;;;28.60;nan
7478;BME280;3780;42.424;25.636;2023-03-19T14:13:20;99391.19;;;29.13;nan
7478;BME280;3780;42.424;25.636;2023-03-19T14:15:48;99400.44;;;29.25;nan
7478;BME280;3780;42.424;25.636;2023-03-19T14:18:20;99384.56;;;29.25;nan
7478;BME280;3780;42.424;25.636;2023-03-19T14:20:56;99402.72;;;29.79;nan
7478;BME280;3780;42.424;25.636;2023-03-19T14:23:25;99396.31;;;29.41;nan
7478;BME280;3780;42.424;25.636;2023-03-19T14:31:27;99389.38;;;26.68;nan
7478;BME280;3780;42.424;25.636;2023-03-19T14:36:40;99374.38;;;27.23;nan
7478;BME280;3780;42.424;25.636;2023-03-19T14:39:22;99391.75;;;27.39;nan
7478;BME280;3780;42.424;25.636;2023-03-19T14:41:51;99398.03;;;26.66;nan
7478;BME280;3780;42.424;25.636;2023-03-19T14:50:06;99381.03;;;22.49;nan
7478;BME280;3780;42.424;25.636;2023-03-19T14:52:48;99392.78;;;20.95;nan
7478;BME280;3780;42.424;25.636;2023-03-19T14:55:16;99382.91;;;20.28;nan
7478;BME280;3780;42.424;25.636;2023-03-19T14:57:42;99383.31;;;19.82;nan
7478;BME280;3780;42.424;25.636;2023-03-19T15:00:17;99378.84;;;19.19;nan
7478;BME280;3780;42.424;25.636;2023-03-19T15:02:50;99368.25;;;18.67;nan
7478;BME280;3780;42.424;25.636;2023-03-19T15:05:29;99382.41;;;18.28;nan
7478;BME280;3780;42.424;25.636;2023-03-19T15:08:02;99382.63;;;18.04;nan
7478;BME280;3780;42.424;25.636;2023-03-19T15:10:34;99355.34;;;17.72;nan
7478;BME280;3780;42.424;25.636;2023-03-19T15:16:14;99393.69;;;17.29;nan
7478;BME280;3780;42.424;25.636;2023-03-19T15:18:44;99378.16;;;16.92;nan
7478;BME280;3780;42.424;25.636;2023-03-19T15:21:09;99390.09;;;16.96;nan
7478;BME280;3780;42.424;25.636;2023-03-19T15:23:36;99394.06;;;16.85;nan
7478;BME280;3780;42.424;25.636;2023-03-19T15:26:04;99396.13;;;16.74;nan
7478;BME280;3780;42.424;25.636;2023-03-19T15:28:46;99390.19;;;16.67;nan
7478;BME280;3780;42.424;25.636;2023-03-19T15:31:12;99389.50;;;16.56;nan
7478;BME280;3780;42.424;25.636;2023-03-19T15:33:38;99389.13;;;16.44;nan
7478;BME280;3780;42.424;25.636;2023-03-19T15:41:21;99404.03;;;16.23;nan
7478;BME280;3780;42.424;25.636;2023-03-19T15:43:49;99391.34;;;16.13;nan
7478;BME280;3780;42.424;25.636;2023-03-19T15:46:18;99403.94;;;16.09;nan
7478;BME280;3780;42.424;25.636;2023-03-19T15:49:27;99400.22;;;16.00;nan
7478;BME280;3780;42.424;25.636;2023-03-19T15:51:58;99400.81;;;15.92;nan
7478;BME280;3780;42.424;25.636;2023-03-19T15:54:26;99408.84;;;15.78;nan
7478;BME280;3780;42.424;25.636;2023-03-19T15:56:51;99410.81;;;15.72;nan
7478;BME280;3780;42.424;25.636;2023-03-19T15:59:19;99390.56;;;15.55;nan
7478;BME280;3780;42.424;25.636;2023-03-19T16:01:46;99412.84;;;15.51;nan
7478;BME280;3780;42.424;25.636;2023-03-19T16:04:16;99419.97;;;15.47;nan
7478;BME280;3780;42.424;25.636;2023-03-19T16:06:47;99421.66;;;15.38;nan
7478;BME280;3780;42.424;25.636;2023-03-19T16:09:23;99409.56;;;15.20;nan
7478;BME280;3780;42.424;25.636;2023-03-19T16:11:49;99419.38;;;15.16;nan
7478;BME280;3780;42.424;25.636;2023-03-19T16:16:51;99434.66;;;15.02;nan
7478;BME280;3780;42.424;25.636;2023-03-19T16:19:36;99436.59;;;14.97;nan
7478;BME280;3780;42.424;25.636;2023-03-19T16:22:10;99421.25;;;14.72;nan
7478;BME280;3780;42.424;25.636;2023-03-19T16:24:39;65461.69;;;-142.90;100.00
7478;BME280;3780;42.424;25.636;2023-03-19T16:27:11;65461.69;;;-142.90;100.00
7478;BME280;3780;42.424;25.636;2023-03-19T16:29:39;65461.69;;;-142.90;100.00
7478;BME280;3780;42.424;25.636;2023-03-19T16:34:46;65461.69;;;-142.90;100.00
7478;BME280;3780;42.424;25.636;2023-03-19T16:37:46;65461.69;;;-142.90;100.00
7478;BME280;3780;42.424;25.636;2023-03-19T16:42:46;65461.69;;;-142.90;100.00
7478;BME280;3780;42.424;25.636;2023-03-19T16:47:50;65461.69;;;-142.90;100.00
7478;BME280;3780;42.424;25.636;2023-03-19T16:50:18;65461.69;;;-142.90;100.00
7478;BME280;3780;42.424;25.636;2023-03-19T16:52:45;99503.34;;;13.62;nan
7478;BME280;3780;42.424;25.636;2023-03-19T16:55:24;99509.03;;;13.45;nan
7478;BME280;3780;42.424;25.636;2023-03-19T17:00:30;65461.69;;;-142.90;100.00
7478;BME280;3780;42.424;25.636;2023-03-19T17:02:56;65461.69;;;-142.90;100.00
7478;BME280;3780;42.424;25.636;2023-03-19T17:05:24;65461.69;;;-142.90;100.00
7478;BME280;3780;42.424;25.636;2023-03-19T17:07:51;65461.69;;;-142.90;100.00
7478;BME280;3780;42.424;25.636;2023-03-19T17:10:19;65461.69;;;-142.90;100.00
7478;BME280;3780;42.424;25.636;2023-03-19T17:12:47;65461.69;;;-142.90;100.00
7478;BME280;3780;42.424;25.636;2023-03-19T17:15:22;65461.69;;;-142.90;100.00
7478;BME280;3780;42.424;25.636;2023-03-19T17:17:51;65461.69;;;-142.90;100.00
7478;BME280;3780;42.424;25.636;2023-03-19T17:20:19;65461.69;;;-142.90;100.00
7478;BME280;3780;42.424;25.636;2023-03-19T17:22:46;65461.69;;;-142.90;100.00
7478;BME280;3780;42.424;25.636;2023-03-19T17:25:13;65461.69;;;-142.90;100.00
7478;BME280;3780;42.424;25.636;2023-03-19T17:27:39;65461.69;;;-142.90;100.00
7478;BME280;3780;42.424;25.636;2023-03-19T17:30:05;65461.69;;;-142.90;100.00
7478;BME280;3780;42.424;25.636;2023-03-19T17:32:31;65461.69;;;-142.90;100.00
7478;BME280;3780;42.424;25.636;2023-03-19T17:34:57;65461.69;;;-142.90;100.00
7478;BME280;3780;42.424;25.636;2023-03-19T17:37:22;65461.69;;;-142.90;100.00
7478;BME280;3780;42.424;25.636;2023-03-19T17:39:49;65461.69;;;-142.90;100.00
7478;BME280;3780;42.424;25.636;2023-03-19T17:42:20;65461.69;;;-142.90;100.00
7478;BME280;3780;42.424;25.636;2023-03-19T17:44:47;65461.69;;;-142.90;100.00
7478;BME280;3780;42.424;25.636;2023-03-19T17:47:12;65461.69;;;-142.90;100.00
7478;BME280;3780;42.424;25.636;2023-03-19T17:49:38;65461.69;;;-142.90;100.00
7478;BME280;3780;42.424;25.636;2023-03-19T17:52:15;65461.69;;;-142.90;100.00
7478;BME280;3780;42.424;25.636;2023-03-19T17:54:41;65461.69;;;-142.90;100.00
7478;BME280;3780;42.424;25.636;2023-03-19T17:57:11;65461.69;;;-142.90;100.00
7478;BME280;3780;42.424;25.636;2023-03-19T17:59:37;65461.69;;;-142.90;100.00
7478;BME280;3780;42.424;25.636;2023-03-19T18:02:13;65461.69;;;-142.90;100.00
7478;BME280;3780;42.424;25.636;2023-03-19T18:04:44;65461.69;;;-142.90;100.00
7478;BME280;3780;42.424;25.636;2023-03-19T18:07:09;65461.69;;;-142.90;100.00
7478;BME280;3780;42.424;25.636;2023-03-19T18:09:34;65461.69;;;-142.90;100.00
7478;BME280;3780;42.424;25.636;2023-03-19T18:12:00;65461.69;;;-142.90;100.00
7478;BME280;3780;42.424;25.636;2023-03-19T18:14:26;65461.69;;;-142.90;100.00
7478;BME280;3780;42.424;25.636;2023-03-19T18:16:51;65461.69;;;-142.90;100.00
7478;BME280;3780;42.424;25.636;2023-03-19T18:19:29;65461.69;;;-142.90;100.00
7478;BME280;3780;42.424;25.636;2023-03-19T18:21:56;65461.69;;;-142.90;100.00
7478;BME280;3780;42.424;25.636;2023-03-19T18:24:22;65461.69;;;-142.90;100.00
7478;BME280;3780;42.424;25.636;2023-03-19T18:26:47;65461.69;;;-142.90;100.00
7478;BME280;3780;42.424;25.636;2023-03-19T18:29:13;65461.69;;;-142.90;100.00
7478;BME280;3780;42.424;25.636;2023-03-19T18:31:41;65461.69;;;-142.90;100.00
7478;BME280;3780;42.424;25.636;2023-03-19T18:34:10;65461.69;;;-142.90;100.00
7478;BME280;3780;42.424;25.636;2023-03-19T18:36:37;65461.69;;;-142.90;100.00
7478;BME280;3780;42.424;25.636;2023-03-19T18:39:05;65461.69;;;-142.90;100.00
7478;BME280;3780;42.424;25.636;2023-03-19T18:41:30;65461.69;;;-142.90;100.00
7478;BME280;3780;42.424;25.636;2023-03-19T18:43:56;65461.69;;;-142.90;100.00
7478;BME280;3780;42.424;25.636;2023-03-19T18:46:24;65461.69;;;-142.90;100.00
7478;BME280;3780;42.424;25.636;2023-03-19T18:48:58;65461.69;;;-142.90;100.00
7478;BME280;3780;42.424;25.636;2023-03-19T18:51:24;65461.69;;;-142.90;100.00
7478;BME280;3780;42.424;25.636;2023-03-19T18:53:49;65461.69;;;-142.90;100.00
7478;BME280;3780;42.424;25.636;2023-03-19T18:56:27;65461.69;;;-142.90;100.00
7478;BME280;3780;42.424;25.636;2023-03-19T18:58:54;65461.69;;;-142.90;100.00
7478;BME280;3780;42.424;25.636;2023-03-19T19:01:21;65461.69;;;-142.90;100.00
7478;BME280;3780;42.424;25.636;2023-03-19T19:03:47;65461.69;;;-142.90;100.00
7478;BME280;3780;42.424;25.636;2023-03-19T19:06:20;65461.69;;;-142.90;100.00
7478;BME280;3780;42.424;25.636;2023-03-19T19:08:46;65461.69;;;-142.90;100.00
7478;BME280;3780;42.424;25.636;2023-03-19T19:11:13;65461.69;;;-142.90;100.00
7478;BME280;3780;42.424;25.636;2023-03-19T19:13:39;65461.69;;;-142.90;100.00
7478;BME280;3780;42.424;25.636;2023-03-19T19:16:17;65461.69;;;-142.90;100.00
7478;BME280;3780;42.424;25.636;2023-03-19T19:18:45;65461.69;;;-142.90;100.00
7478;BME280;3780;42.424;25.636;2023-03-19T19:21:11;65461.69;;;-142.90;100.00
7478;BME280;3780;42.424;25.636;2023-03-19T19:23:37;65461.69;;;-142.90;100.00
7478;BME280;3780;42.424;25.636;2023-03-19T19:26:03;65461.69;;;-142.90;100.00
7478;BME280;3780;42.424;25.636;2023-03-19T19:28:36;65461.69;;;-142.90;100.00
7478;BME280;3780;42.424;25.636;2023-03-19T19:31:03;65461.69;;;-142.90;100.00
7478;BME280;3780;42.424;25.636;2023-03-19T19:33:32;65461.69;;;-142.90;100.00
7478;BME280;3780;42.424;25.636;2023-03-19T19:36:02;65461.69;;;-142.90;100.00
7478;BME280;3780;42.424;25.636;2023-03-19T19:38:28;65461.69;;;-142.90;100.00
7478;BME280;3780;42.424;25.636;2023-03-19T19:40:55;65461.69;;;-142.90;100.00
7478;BME280;3780;42.424;25.636;2023-03-19T19:43:24;65461.69;;;-142.90;100.00
7478;BME280;3780;42.424;25.636;2023-03-19T19:45:52;65461.69;;;-142.90;100.00
7478;BME280;3780;42.424;25.636;2023-03-19T19:48:23;65461.69;;;-142.90;100.00
7478;BME280;3780;42.424;25.636;2023-03-19T19:50:50;65461.69;;;-142.90;100.00
7478;BME280;3780;42.424;25.636;2023-03-19T19:53:17;65461.69;;;-142.90;100.00
7478;BME280;3780;42.424;25.636;2023-03-19T19:55:44;65461.69;;;-142.90;100.00
7478;BME280;3780;42.424;25.636;2023-03-19T19:58:27;65461.69;;;-142.90;100.00
7478;BME280;3780;42.424;25.636;2023-03-19T20:00:55;65461.69;;;-142.90;100.00
7478;BME280;3780;42.424;25.636;2023-03-19T20:03:24;65461.69;;;-142.90;100.00
7478;BME280;3780;42.424;25.636;2023-03-19T20:05:50;65461.69;;;-142.90;100.00
7478;BME280;3780;42.424;25.636;2023-03-19T20:08:18;65461.69;;;-142.90;100.00
7478;BME280;3780;42.424;25.636;2023-03-19T20:10:44;65461.69;;;-142.90;100.00
7478;BME280;3780;42.424;25.636;2023-03-19T20:15:51;65461.69;;;-142.90;100.00
7478;BME280;3780;42.424;25.636;2023-03-19T20:18:18;65461.69;;;-142.90;100.00
7478;BME280;3780;42.424;25.636;2023-03-19T20:20:44;65461.69;;;-142.90;100.00
7478;BME280;3780;42.424;25.636;2023-03-19T20:23:10;65461.69;;;-142.90;100.00
7478;BME280;3780;42.424;25.636;2023-03-19T20:25:38;65461.69;;;-142.90;100.00
7478;BME280;3780;42.424;25.636;2023-03-19T20:28:04;65461.69;;;-142.90;100.00
7478;BME280;3780;42.424;25.636;2023-03-19T20:30:38;65461.69;;;-142.90;100.00
7478;BME280;3780;42.424;25.636;2023-03-19T20:33:06;65461.69;;;-142.90;100.00
7478;BME280;3780;42.424;25.636;2023-03-19T20:35:33;65461.69;;;-142.90;100.00
7478;BME280;3780;42.424;25.636;2023-03-19T20:38:01;65461.69;;;-142.90;100.00
7478;BME280;3780;42.424;25.636;2023-03-19T20:40:31;65461.69;;;-142.90;100.00
7478;BME280;3780;42.424;25.636;2023-03-19T20:42:57;65461.69;;;-142.90;100.00
7478;BME280;3780;42.424;25.636;2023-03-19T20:45:33;65461.69;;;-142.90;100.00
7478;BME280;3780;42.424;25.636;2023-03-19T20:47:59;65461.69;;;-142.90;100.00
7478;BME280;3780;42.424;25.636;2023-03-19T20:50:30;65461.69;;;-142.90;100.00
7478;BME280;3780;42.424;25.636;2023-03-19T20:52:57;65461.69;;;-142.90;100.00
7478;BME280;3780;42.424;25.636;2023-03-19T20:55:27;65461.69;;;-142.90;100.00
7478;BME280;3780;42.424;25.636;2023-03-19T20:57:54;65461.69;;;-142.90;100.00
7478;BME280;3780;42.424;25.636;2023-03-19T21:00:31;65461.69;;;-142.90;100.00
7478;BME280;3780;42.424;25.636;2023-03-19T21:02:59;65461.69;;;-142.90;100.00
7478;BME280;3780;42.424;25.636;2023-03-19T21:05:43;65461.69;;;-142.90;100.00
7478;BME280;3780;42.424;25.636;2023-03-19T21:08:15;65461.69;;;-142.90;100.00
7478;BME280;3780;42.424;25.636;2023-03-19T21:10:46;65461.69;;;-142.90;100.00
7478;BME280;3780;42.424;25.636;2023-03-19T21:13:15;65461.69;;;-142.90;100.00
7478;BME280;3780;42.424;25.636;2023-03-19T21:15:41;65461.69;;;-142.90;100.00
7478;BME280;3780;42.424;25.636;2023-03-19T21:18:08;65461.69;;;-142.90;100.00
7478;BME280;3780;42.424;25.636;2023-03-19T21:20:35;65461.69;;;-142.90;100.00
7478;BME280;3780;42.424;25.636;2023-03-19T21:25:44;65461.69;;;-142.90;100.00
7478;BME280;3780;42.424;25.636;2023-03-19T21:28:15;65461.69;;;-142.90;100.00
7478;BME280;3780;42.424;25.636;2023-03-19T21:30:44;65461.69;;;-142.90;100.00
7478;BME280;3780;42.424;25.636;2023-03-19T21:33:22;65461.69;;;-142.90;100.00
7478;BME280;3780;42.424;25.636;2023-03-19T21:35:49;65461.69;;;-142.90;100.00
7478;BME280;3780;42.424;25.636;2023-03-19T21:38:15;65461.69;;;-142.90;100.00
7478;BME280;3780;42.424;25.636;2023-03-19T21:40:42;65461.69;;;-142.90;100.00